Time;durP1;ratioP1;P1;durP2;ratioP2;P2;SDS_P1;SDS_P2;PMS_P1;PMS_P2;Temp;Humidity;BMP_temperature;BMP_pressure;BME280_temperature;BME280_humidity;BME280_pressure;Samples;Min_cycle;Max_cycle;Signal;HPM_P1;HPM_P2
2023/03/29 00:02:29;;;;;;;1.33;1.23;;;2.40;99.90;;;;;;4978685;28;20450;-51
2023/03/29 00:04:56;;;;;;;1.13;1.00;;;2.60;99.90;;;;;;4977792;28;20449;-52
2023/03/29 00:07:25;;;;;;;2.30;1.30;;;2.70;99.90;;;;;;4977701;28;20505;-50
2023/03/29 00:09:52;;;;;;;1.33;1.17;;;2.60;99.90;;;;;;4978265;28;20450;-51
2023/03/29 00:12:19;;;;;;;1.10;0.83;;;2.50;99.90;;;;;;4978568;28;20445;-50
2023/03/29 00:14:46;;;;;;;1.17;1.07;;;2.80;99.90;;;;;;4977935;28;20572;-52
2023/03/29 00:17:13;;;;;;;1.30;0.87;;;3.00;99.90;;;;;;4978761;28;20501;-50
2023/03/29 00:19:42;;;;;;;12.00;6.40;;;2.90;99.90;;;;;;4978333;28;20489;-53
2023/03/29 00:22:09;;;;;;;2.73;1.73;;;2.90;99.90;;;;;;4978270;28;20521;-50
2023/03/29 00:24:38;;;;;;;1.70;1.10;;;2.70;99.90;;;;;;4995472;28;20489;-52
2023/03/29 00:27:05;;;;;;;0.97;0.73;;;2.70;99.90;;;;;;4997337;28;20470;-50
2023/03/29 00:29:32;;;;;;;1.10;0.93;;;2.80;99.90;;;;;;4997484;28;20454;-50
2023/03/29 00:31:59;;;;;;;2.43;1.40;;;3.00;99.90;;;;;;4998229;28;20946;-50
2023/03/29 00:34:29;;;;;;;1.40;1.07;;;3.00;99.90;;;;;;4997421;28;20537;-50
2023/03/29 00:36:57;;;;;;;1.73;1.30;;;3.10;99.90;;;;;;4998373;28;20888;-50
2023/03/29 00:39:26;;;;;;;1.30;1.00;;;3.10;99.90;;;;;;4997006;28;21007;-49
2023/03/29 00:41:55;;;;;;;1.47;1.37;;;3.10;99.90;;;;;;4998086;28;20456;-52
2023/03/29 00:44:55;;;;;;;1.70;1.10;;;2.60;99.90;;;;;;4997911;28;20469;-51
2023/03/29 00:47:26;;;;;;;1.87;1.40;;;2.30;99.90;;;;;;4996979;28;20464;-50
2023/03/29 00:49:54;;;;;;;2.20;1.67;;;2.30;99.90;;;;;;4992673;28;20437;-49
2023/03/29 00:52:23;;;;;;;1.97;1.60;;;2.30;99.90;;;;;;4979192;28;20944;-50
2023/03/29 00:54:54;;;;;;;1.37;1.27;;;2.30;99.90;;;;;;4989119;28;21026;-50
2023/03/29 00:57:24;;;;;;;1.20;1.00;;;2.20;99.90;;;;;;4980731;28;20548;-51
2023/03/29 00:59:52;;;;;;;1.30;1.00;;;2.20;99.90;;;;;;4977740;28;20957;-51
2023/03/29 01:02:22;;;;;;;1.20;1.10;;;2.30;99.90;;;;;;4991696;28;20451;-51
2023/03/29 01:04:54;;;;;;;1.40;1.00;;;2.40;99.90;;;;;;4984440;28;20478;-51
2023/03/29 01:07:27;;;;;;;1.20;1.00;;;2.50;99.90;;;;;;4991771;28;20468;-50
2023/03/29 01:09:58;;;;;;;1.47;1.17;;;2.50;99.90;;;;;;4979381;28;20446;-50
2023/03/29 01:12:34;;;;;;;1.40;1.00;;;2.60;99.90;;;;;;4991301;28;20475;-51
2023/03/29 01:15:06;;;;;;;1.80;0.90;;;2.80;99.90;;;;;;4988479;28;20994;-51
2023/03/29 01:17:33;;;;;;;1.80;0.93;;;3.00;99.90;;;;;;4980195;28;20913;-50
2023/03/29 01:20:09;;;;;;;2.07;1.07;;;3.00;99.90;;;;;;4991736;28;20466;-51
2023/03/29 01:22:50;;;;;;;3.50;2.37;;;3.00;99.90;;;;;;4977721;28;20496;-50
2023/03/29 01:25:25;;;;;;;2.80;1.93;;;3.00;99.90;;;;;;4991868;28;20484;-50
2023/03/29 01:27:57;;;;;;;1.53;1.27;;;3.10;99.90;;;;;;4993956;28;20477;-50
2023/03/29 01:30:30;;;;;;;3.10;2.30;;;3.00;99.90;;;;;;4981575;28;20820;-51
2023/03/29 01:33:01;;;;;;;5.20;3.23;;;3.10;99.90;;;;;;4983746;28;20496;-51
2023/03/29 01:35:35;;;;;;;2.73;2.00;;;3.10;99.90;;;;;;4991638;28;20449;-52
2023/03/29 01:38:07;;;;;;;2.03;1.20;;;2.90;99.90;;;;;;4977271;28;20471;-51
2023/03/29 01:40:34;;;;;;;1.67;1.20;;;2.80;99.90;;;;;;4978767;28;20458;-51
2023/03/29 01:43:11;;;;;;;1.67;1.07;;;3.00;99.90;;;;;;4978505;28;20983;-50
2023/03/29 01:45:45;;;;;;;1.30;1.20;;;3.10;99.90;;;;;;4986882;28;20529;-52
2023/03/29 01:48:19;;;;;;;1.33;1.00;;;3.10;99.90;;;;;;4985649;28;20471;-51
2023/03/29 01:50:50;;;;;;;2.40;1.00;;;3.10;99.90;;;;;;4990072;28;20485;-52
2023/03/29 01:53:24;;;;;;;1.30;0.80;;;3.20;99.90;;;;;;4992039;28;20445;-51
2023/03/29 01:55:54;;;;;;;1.00;0.80;;;3.20;99.90;;;;;;4979819;28;20493;-49
2023/03/29 01:58:27;;;;;;;1.10;0.87;;;3.10;99.90;;;;;;4992266;28;20551;-50
2023/03/29 02:00:55;;;;;;;1.90;1.17;;;3.00;99.90;;;;;;4993107;28;20522;-49
2023/03/29 02:03:25;;;;;;;2.10;1.03;;;2.90;99.90;;;;;;4983732;28;20450;-50
2023/03/29 02:05:53;;;;;;;1.70;1.20;;;2.80;99.90;;;;;;4979341;28;20461;-48
2023/03/29 02:08:22;;;;;;;1.67;1.00;;;2.70;99.90;;;;;;4982511;28;20506;-49
2023/03/29 02:10:50;;;;;;;1.17;0.70;;;2.80;99.90;;;;;;4993892;28;20816;-50
2023/03/29 02:13:18;;;;;;;1.97;1.40;;;2.70;99.90;;;;;;4988889;28;20500;-51
2023/03/29 02:15:46;;;;;;;1.03;0.60;;;2.70;99.90;;;;;;4984840;28;20541;-51
2023/03/29 02:18:16;;;;;;;1.63;1.10;;;2.70;99.90;;;;;;4985441;28;21039;-49
2023/03/29 02:20:47;;;;;;;1.40;1.10;;;2.90;99.90;;;;;;4993810;28;20452;-51
2023/03/29 02:23:20;;;;;;;1.20;0.90;;;2.80;99.90;;;;;;4984894;28;20451;-52
2023/03/29 02:25:49;;;;;;;1.30;0.87;;;2.80;99.90;;;;;;4975980;28;20453;-51
2023/03/29 02:28:17;;;;;;;1.17;0.90;;;2.60;99.90;;;;;;4976202;28;20491;-49
2023/03/29 02:30:52;;;;;;;1.57;1.17;;;2.60;99.90;;;;;;4976167;28;20838;-49
2023/03/29 02:33:22;;;;;;;1.50;1.07;;;2.50;99.90;;;;;;4976429;28;20490;-52
2023/03/29 02:35:55;;;;;;;1.30;1.07;;;2.60;99.90;;;;;;4976059;28;20431;-49
2023/03/29 02:38:26;;;;;;;1.50;1.40;;;2.80;99.90;;;;;;4976760;28;21009;-49
2023/03/29 02:40:55;;;;;;;1.80;1.13;;;3.00;99.90;;;;;;4980615;28;20856;-50
2023/03/29 02:43:24;;;;;;;1.60;1.50;;;2.70;99.90;;;;;;4994915;28;20480;-51
2023/03/29 02:45:53;;;;;;;1.27;0.90;;;2.30;99.90;;;;;;4995128;28;20479;-48
2023/03/29 02:48:23;;;;;;;2.07;1.20;;;2.40;99.90;;;;;;4980194;28;20572;-50
2023/03/29 02:50:55;;;;;;;1.17;1.00;;;2.50;99.90;;;;;;4975638;28;20445;-51
2023/03/29 02:53:26;;;;;;;1.40;0.90;;;2.50;99.90;;;;;;4975130;28;20493;-51
2023/03/29 02:55:53;;;;;;;2.70;1.73;;;2.60;99.90;;;;;;4975487;28;20512;-50
2023/03/29 02:58:27;;;;;;;2.10;1.40;;;2.70;99.90;;;;;;4974742;28;20548;-51
2023/03/29 03:00:58;;;;;;;1.40;0.80;;;2.60;99.90;;;;;;4975343;28;20457;-50
2023/03/29 03:03:26;;;;;;;1.40;0.93;;;3.00;99.90;;;;;;4977458;28;20517;-51
2023/03/29 03:05:53;;;;;;;1.20;0.83;;;2.80;99.90;;;;;;4995063;28;20446;-50
2023/03/29 03:08:20;;;;;;;1.00;0.80;;;2.70;99.90;;;;;;4995544;28;20460;-50
2023/03/29 03:10:47;;;;;;;1.10;1.00;;;2.60;99.90;;;;;;4994798;28;20488;-51
2023/03/29 03:13:14;;;;;;;1.20;0.70;;;2.70;99.90;;;;;;4983403;28;20533;-51
2023/03/29 03:15:42;;;;;;;1.77;1.17;;;2.90;99.90;;;;;;4979980;28;20504;-49
2023/03/29 03:18:11;;;;;;;1.40;0.83;;;2.80;99.90;;;;;;4988788;28;20494;-49
2023/03/29 03:20:38;;;;;;;3.10;1.10;;;2.70;99.90;;;;;;4991038;28;20441;-50
2023/03/29 03:23:07;;;;;;;1.17;0.80;;;2.60;99.90;;;;;;4994579;28;20457;-51
2023/03/29 03:25:35;;;;;;;1.23;1.00;;;2.60;99.90;;;;;;4993898;28;20441;-50
2023/03/29 03:28:02;;;;;;;2.30;1.50;;;2.70;99.90;;;;;;4990475;28;20495;-51
2023/03/29 03:30:29;;;;;;;1.83;1.27;;;2.70;99.90;;;;;;4994908;28;20451;-50
2023/03/29 03:32:56;;;;;;;2.60;2.10;;;2.60;99.90;;;;;;4985854;28;20896;-50
2023/03/29 03:35:24;;;;;;;8.50;5.63;;;2.60;99.90;;;;;;4974380;28;20556;-51
2023/03/29 03:37:51;;;;;;;4.27;2.53;;;2.60;99.90;;;;;;4974556;28;20475;-53
2023/03/29 03:40:19;;;;;;;1.30;1.20;;;2.60;99.90;;;;;;4974622;28;20452;-51
2023/03/29 03:42:46;;;;;;;1.47;1.03;;;2.60;99.90;;;;;;4975776;28;20540;-50
2023/03/29 03:45:14;;;;;;;1.17;1.07;;;2.60;99.90;;;;;;4974882;28;20537;-50
2023/03/29 03:47:41;;;;;;;4.30;1.53;;;2.60;99.90;;;;;;4975370;28;20594;-51
2023/03/29 03:50:10;;;;;;;1.80;1.47;;;2.40;99.90;;;;;;4981812;28;20972;-49
2023/03/29 03:52:38;;;;;;;1.40;1.20;;;2.40;99.90;;;;;;4991624;28;20455;-50
2023/03/29 03:55:07;;;;;;;1.60;1.13;;;2.30;99.90;;;;;;4991675;28;20546;-49
2023/03/29 03:57:36;;;;;;;2.40;1.00;;;2.30;99.90;;;;;;4992869;28;20468;-50
2023/03/29 04:00:08;;;;;;;1.50;1.40;;;2.40;99.90;;;;;;4993349;28;20453;-51
2023/03/29 04:02:36;;;;;;;2.47;1.60;;;2.60;99.90;;;;;;4974487;28;20450;-51
2023/03/29 04:05:03;;;;;;;2.00;1.40;;;2.60;99.90;;;;;;4973778;28;20447;-51
2023/03/29 04:07:30;;;;;;;1.93;1.33;;;2.60;99.90;;;;;;4974024;28;20561;-50
2023/03/29 04:09:58;;;;;;;2.73;2.27;;;2.40;99.90;;;;;;4974643;28;20446;-51
2023/03/29 04:12:25;;;;;;;8.07;5.07;;;2.50;99.90;;;;;;4973347;28;20483;-49
2023/03/29 04:14:52;;;;;;;1.70;1.40;;;2.70;99.90;;;;;;4973906;28;20482;-50
2023/03/29 04:17:19;;;;;;;1.67;1.27;;;2.80;99.90;;;;;;4979769;28;20548;-53
2023/03/29 04:19:46;;;;;;;1.30;1.07;;;2.80;99.90;;;;;;4993905;28;20462;-50
2023/03/29 04:22:13;;;;;;;3.10;1.10;;;2.80;99.90;;;;;;4993994;28;20481;-51
2023/03/29 04:24:40;;;;;;;2.30;1.33;;;2.90;99.90;;;;;;4994363;28;20472;-51
2023/03/29 04:27:09;;;;;;;1.70;1.33;;;2.80;99.90;;;;;;4994610;28;20902;-50
2023/03/29 04:29:36;;;;;;;9.60;8.00;;;2.50;99.90;;;;;;4994228;28;20543;-52
2023/03/29 04:32:02;;;;;;;2.97;2.77;;;2.50;99.90;;;;;;4994156;28;20451;-51
2023/03/29 04:34:29;;;;;;;3.07;2.40;;;2.60;99.90;;;;;;4990434;28;20490;-51
2023/03/29 04:36:57;;;;;;;6.70;6.10;;;2.70;99.90;;;;;;4993613;28;20473;-52
2023/03/29 04:39:30;;;;;;;7.30;6.60;;;2.70;99.90;;;;;;4981258;28;20446;-53
2023/03/29 04:41:57;;;;;;;5.53;5.03;;;2.70;99.90;;;;;;4975152;28;20459;-49
2023/03/29 04:44:26;;;;;;;1.10;0.90;;;2.60;99.90;;;;;;4991314;28;21003;-51
2023/03/29 04:46:53;;;;;;;1.87;1.77;;;2.80;99.90;;;;;;4991261;28;20473;-51
2023/03/29 04:49:20;;;;;;;2.53;1.80;;;3.00;99.90;;;;;;4983326;28;20528;-50
2023/03/29 04:51:47;;;;;;;2.10;1.93;;;3.10;99.90;;;;;;4987691;28;20542;-50
2023/03/29 04:54:14;;;;;;;1.20;1.10;;;3.00;99.90;;;;;;4978416;28;20453;-50
2023/03/29 04:56:41;;;;;;;1.30;0.97;;;3.00;99.90;;;;;;4987401;28;20466;-52
2023/03/29 04:59:08;;;;;;;1.67;1.20;;;3.10;99.90;;;;;;4997965;28;20498;-50
2023/03/29 05:01:36;;;;;;;2.30;1.40;;;3.20;99.90;;;;;;4991600;28;20452;-50
2023/03/29 05:04:04;;;;;;;1.53;1.20;;;3.20;99.90;;;;;;4978234;28;20446;-52
2023/03/29 05:06:31;;;;;;;2.70;2.50;;;3.10;99.90;;;;;;4995817;28;20445;-50
2023/03/29 05:08:59;;;;;;;2.03;1.60;;;2.60;99.90;;;;;;4992812;28;20470;-51
2023/03/29 05:11:27;;;;;;;3.03;2.73;;;2.20;99.90;;;;;;4995721;28;20453;-51
2023/03/29 05:13:54;;;;;;;2.50;2.30;;;2.50;99.90;;;;;;4987945;28;20603;-51
2023/03/29 05:16:21;;;;;;;2.30;2.10;;;2.70;99.90;;;;;;4993444;28;20479;-50
2023/03/29 05:18:50;;;;;;;2.30;2.10;;;2.50;99.90;;;;;;4994832;28;20466;-50
2023/03/29 05:21:17;;;;;;;4.20;3.73;;;2.30;99.90;;;;;;4991795;28;20524;-50
2023/03/29 05:23:44;;;;;;;3.53;2.70;;;2.30;99.90;;;;;;4991920;28;20464;-52
2023/03/29 05:26:13;;;;;;;4.97;2.77;;;2.60;99.90;;;;;;4989893;28;20697;-52
2023/03/29 05:28:40;;;;;;;2.30;2.13;;;2.70;99.90;;;;;;4992582;28;20446;-50
2023/03/29 05:31:08;;;;;;;6.07;4.33;;;3.00;99.90;;;;;;4992359;28;20852;-50
2023/03/29 05:33:36;;;;;;;2.40;2.20;;;2.80;99.90;;;;;;4987491;28;20509;-50
2023/03/29 05:36:06;;;;;;;4.43;3.10;;;2.40;99.90;;;;;;4976458;28;20518;-52
2023/03/29 05:38:34;;;;;;;3.87;3.47;;;2.40;99.90;;;;;;4976743;28;20543;-51
2023/03/29 05:41:02;;;;;;;3.30;3.00;;;2.60;99.90;;;;;;4977246;28;20454;-51
2023/03/29 05:43:29;;;;;;;6.83;6.17;;;2.70;99.90;;;;;;4975755;28;20536;-52
2023/03/29 05:45:56;;;;;;;9.57;8.00;;;2.40;99.90;;;;;;4975245;28;20518;-52
2023/03/29 05:48:26;;;;;;;2.70;2.50;;;2.50;99.90;;;;;;4976059;28;20909;-52
2023/03/29 05:50:55;;;;;;;2.83;2.50;;;2.20;99.90;;;;;;4982396;28;20527;-51
2023/03/29 05:53:25;;;;;;;3.00;2.17;;;2.20;99.90;;;;;;4995872;28;20457;-52
2023/03/29 05:55:52;;;;;;;3.13;2.60;;;2.40;99.90;;;;;;4995297;28;20588;-52
2023/03/29 05:58:19;;;;;;;3.20;2.23;;;2.50;99.90;;;;;;4996361;28;20940;-50
2023/03/29 06:00:48;;;;;;;8.20;6.13;;;2.50;99.90;;;;;;4996754;28;20928;-51
2023/03/29 06:03:18;;;;;;;4.37;4.03;;;2.60;99.90;;;;;;4996107;28;20838;-51
2023/03/29 06:05:46;;;;;;;2.70;2.50;;;2.70;99.90;;;;;;4995905;28;20452;-52
2023/03/29 06:08:14;;;;;;;9.40;8.50;;;2.50;99.90;;;;;;4995989;28;20987;-52
2023/03/29 06:10:43;;;;;;;4.40;3.67;;;2.50;99.90;;;;;;4996406;28;20800;-52
2023/03/29 06:13:11;;;;;;;20.73;18.40;;;2.60;99.90;;;;;;4996280;28;20459;-51
2023/03/29 06:15:38;;;;;;;6.40;5.57;;;2.60;99.90;;;;;;4996541;28;20534;-51
2023/03/29 06:18:05;;;;;;;2.40;2.20;;;2.80;99.90;;;;;;4995882;28;20529;-51
2023/03/29 06:20:32;;;;;;;2.03;1.83;;;2.80;99.90;;;;;;4997015;28;20455;-50
2023/03/29 06:22:59;;;;;;;2.70;2.50;;;2.80;99.90;;;;;;4996316;28;20446;-51
2023/03/29 06:25:26;;;;;;;3.07;2.77;;;2.70;99.90;;;;;;4996069;28;20942;-51
2023/03/29 06:27:54;;;;;;;4.50;3.30;;;2.50;99.90;;;;;;4995045;28;20493;-51
2023/03/29 06:30:21;;;;;;;3.30;2.40;;;2.20;99.90;;;;;;4995335;28;20436;-51
2023/03/29 06:32:49;;;;;;;3.80;2.90;;;2.20;99.90;;;;;;4995698;28;20473;-50
2023/03/29 06:35:16;;;;;;;6.50;4.43;;;2.10;99.90;;;;;;4995249;28;20483;-51
2023/03/29 06:37:48;;;;;;;10.30;7.10;;;2.30;99.90;;;;;;4995335;28;20567;-51
2023/03/29 06:40:17;;;;;;;5.97;4.20;;;2.60;99.90;;;;;;4995244;28;20504;-51
2023/03/29 06:42:44;;;;;;;4.17;3.77;;;2.70;99.90;;;;;;4994806;28;20515;-52
2023/03/29 06:45:13;;;;;;;3.33;3.03;;;2.80;99.90;;;;;;4992265;28;20476;-50
2023/03/29 06:47:40;;;;;;;2.93;2.63;;;2.80;99.90;;;;;;4991778;28;20500;-52
2023/03/29 06:50:09;;;;;;;3.10;2.70;;;2.90;99.90;;;;;;4992871;28;20514;-49
2023/03/29 06:52:35;;;;;;;3.10;2.90;;;3.00;99.90;;;;;;4994307;28;20998;-51
2023/03/29 06:55:06;;;;;;;3.17;2.83;;;3.00;99.90;;;;;;4994219;28;20517;-51
2023/03/29 06:57:33;;;;;;;3.30;3.00;;;2.90;99.90;;;;;;4994778;28;20521;-50
2023/03/29 07:00:00;;;;;;;4.03;3.60;;;2.50;99.90;;;;;;4995017;28;20450;-52
2023/03/29 07:02:29;;;;;;;3.80;3.43;;;2.40;99.90;;;;;;4995016;28;20447;-51
2023/03/29 07:04:56;;;;;;;29.73;20.60;;;2.60;99.90;;;;;;4995182;28;20533;-50
2023/03/29 07:07:31;;;;;;;7.30;5.83;;;2.80;99.90;;;;;;4993904;28;20463;-50
2023/03/29 07:10:00;;;;;;;2.87;2.67;;;2.90;99.90;;;;;;4995898;28;20449;-50
2023/03/29 07:12:27;;;;;;;3.30;2.20;;;2.90;99.90;;;;;;4995408;28;20447;-50
2023/03/29 07:14:54;;;;;;;2.20;2.10;;;2.90;99.90;;;;;;4995414;28;20471;-51
2023/03/29 07:17:21;;;;;;;2.87;2.47;;;2.80;99.90;;;;;;4995400;28;20483;-51
2023/03/29 07:19:49;;;;;;;2.80;2.10;;;2.80;99.90;;;;;;4995504;28;20450;-51
2023/03/29 07:22:16;;;;;;;3.00;2.50;;;3.00;99.90;;;;;;4995413;28;20454;-51
2023/03/29 07:24:43;;;;;;;2.87;2.67;;;3.20;99.90;;;;;;4995229;28;20532;-50
2023/03/29 07:27:11;;;;;;;3.27;2.60;;;3.30;99.90;;;;;;4995168;28;20530;-52
2023/03/29 07:29:38;;;;;;;2.67;2.47;;;3.10;99.90;;;;;;4995534;28;20450;-52
2023/03/29 07:32:05;;;;;;;3.27;2.80;;;3.10;99.90;;;;;;4995373;28;20493;-49
2023/03/29 07:34:32;;;;;;;3.33;2.70;;;3.20;99.90;;;;;;4995813;28;20926;-50
2023/03/29 07:37:01;;;;;;;3.47;3.17;;;3.20;99.90;;;;;;4995374;28;20564;-51
2023/03/29 07:39:28;;;;;;;3.87;3.23;;;3.20;99.90;;;;;;4994845;28;20508;-50
2023/03/29 07:41:57;;;;;;;5.37;3.20;;;3.20;99.90;;;;;;4994967;28;20541;-50
2023/03/29 07:44:25;;;;;;;3.23;2.73;;;3.30;99.90;;;;;;4995642;28;20452;-52
2023/03/29 07:46:53;;;;;;;4.27;3.27;;;3.20;99.90;;;;;;4995227;28;20463;-51
2023/03/29 07:49:19;;;;;;;3.90;3.30;;;3.20;99.90;;;;;;4995199;28;20455;-50
2023/03/29 07:51:48;;;;;;;3.83;3.53;;;3.10;99.90;;;;;;4995206;28;20448;-50
2023/03/29 07:54:16;;;;;;;4.00;3.60;;;3.00;99.90;;;;;;4995574;28;20481;-50
2023/03/29 07:56:43;;;;;;;3.60;3.30;;;2.90;99.90;;;;;;4994763;28;20496;-50
2023/03/29 07:59:10;;;;;;;5.07;3.23;;;3.10;99.90;;;;;;4995447;28;20483;-51
2023/03/29 08:01:39;;;;;;;3.50;2.80;;;3.40;99.90;;;;;;4995174;28;20477;-50
2023/03/29 08:04:06;;;;;;;3.30;2.90;;;3.50;99.90;;;;;;4994312;28;21005;-50
2023/03/29 08:06:34;;;;;;;4.33;4.03;;;3.60;99.90;;;;;;4994266;28;20488;-49
2023/03/29 08:09:00;;;;;;;3.03;2.60;;;3.60;99.90;;;;;;4994876;28;20447;-50
2023/03/29 08:11:29;;;;;;;3.63;2.57;;;3.60;99.90;;;;;;4995008;28;20872;-50
2023/03/29 08:13:57;;;;;;;2.57;2.30;;;3.40;99.90;;;;;;4994540;28;20442;-50
2023/03/29 08:16:24;;;;;;;3.23;2.93;;;3.30;99.90;;;;;;4994843;28;20856;-53
2023/03/29 08:18:51;;;;;;;5.00;3.53;;;3.20;99.90;;;;;;4996259;28;20508;-51
2023/03/29 08:21:19;;;;;;;3.53;3.00;;;3.30;99.90;;;;;;4998453;28;20537;-50
2023/03/29 08:23:46;;;;;;;3.60;3.00;;;3.50;99.90;;;;;;4998709;28;20902;-51
2023/03/29 08:26:14;;;;;;;3.50;3.03;;;3.60;99.90;;;;;;4999377;28;20511;-50
2023/03/29 08:28:43;;;;;;;4.43;2.77;;;3.60;99.90;;;;;;4998890;28;20454;-51
2023/03/29 08:31:10;;;;;;;3.53;3.23;;;3.40;99.90;;;;;;4998720;28;20537;-51
2023/03/29 08:33:37;;;;;;;3.53;3.17;;;3.40;99.90;;;;;;4998659;28;20447;-52
2023/03/29 08:36:05;;;;;;;5.03;3.00;;;3.40;99.90;;;;;;4998282;28;20472;-51
2023/03/29 08:38:32;;;;;;;3.47;3.17;;;3.60;99.90;;;;;;4998203;28;20941;-52
2023/03/29 08:40:59;;;;;;;4.13;3.20;;;3.60;99.90;;;;;;4998207;28;20800;-51
2023/03/29 08:44:03;;;;;;;6.10;5.07;;;3.60;99.90;;;;;;4997720;28;20481;-52
2023/03/29 08:46:41;;;;;;;4.17;3.50;;;3.70;99.90;;;;;;4979020;28;20460;-52
2023/03/29 08:49:10;;;;;;;4.93;3.50;;;3.70;99.90;;;;;;4997963;28;20838;-51
2023/03/29 08:51:41;;;;;;;5.00;3.50;;;3.60;99.90;;;;;;4998127;28;20456;-50
2023/03/29 08:54:13;;;;;;;4.23;3.67;;;3.60;99.90;;;;;;4997267;28;20447;-50
2023/03/29 08:56:42;;;;;;;7.83;4.30;;;3.60;99.90;;;;;;4997026;28;21038;-52
2023/03/29 08:59:18;;;;;;;3.80;3.40;;;3.60;99.90;;;;;;4997758;28;20830;-51
2023/03/29 09:01:50;;;;;;;3.27;3.00;;;3.70;99.90;;;;;;4997376;28;20533;-50
2023/03/29 09:04:21;;;;;;;2.47;2.17;;;3.80;99.90;;;;;;4997310;28;20488;-53
2023/03/29 09:06:49;;;;;;;4.37;3.10;;;4.00;99.90;;;;;;4996368;28;20472;-50
2023/03/29 09:09:19;;;;;;;3.00;2.80;;;4.10;99.90;;;;;;4996831;28;20501;-50
2023/03/29 09:11:57;;;;;;;2.87;2.50;;;4.10;99.90;;;;;;4995306;28;20592;-50
2023/03/29 09:14:51;;;;;;;2.50;2.30;;;4.10;99.90;;;;;;4997034;28;20896;-50
2023/03/29 09:17:34;;;;;;;3.83;3.00;;;4.30;99.90;;;;;;4998039;28;20494;-51
2023/03/29 09:20:12;;;;;;;3.80;2.53;;;4.20;99.90;;;;;;4998206;28;21012;-53
2023/03/29 09:22:46;;;;;;;4.73;3.00;;;4.20;99.90;;;;;;4997532;28;20509;-51
2023/03/29 09:25:20;;;;;;;4.37;2.90;;;3.90;99.90;;;;;;4997521;28;20530;-50
2023/03/29 09:27:52;;;;;;;3.77;2.97;;;3.90;99.90;;;;;;4998010;28;20821;-50
2023/03/29 09:30:25;;;;;;;3.97;3.50;;;4.00;99.90;;;;;;4997328;28;20510;-51
2023/03/29 09:32:57;;;;;;;5.47;3.57;;;3.70;99.90;;;;;;4997551;28;20828;-51
2023/03/29 09:35:26;;;;;;;3.40;3.00;;;3.90;99.90;;;;;;4997021;28;20883;-51
2023/03/29 09:37:54;;;;;;;2.77;2.47;;;3.90;99.90;;;;;;4995337;28;20896;-50
2023/03/29 09:40:26;;;;;;;3.93;3.40;;;4.00;99.90;;;;;;4992884;28;20526;-50
2023/03/29 09:42:55;;;;;;;3.50;3.20;;;4.10;99.90;;;;;;4994691;28;20991;-50
2023/03/29 09:45:22;;;;;;;4.43;3.47;;;3.90;99.90;;;;;;4996663;28;20506;-50
2023/03/29 09:47:53;;;;;;;3.83;2.93;;;3.70;99.90;;;;;;4996137;28;20534;-51
2023/03/29 09:50:27;;;;;;;2.97;2.60;;;3.80;99.90;;;;;;4995466;28;20450;-50
2023/03/29 09:52:54;;;;;;;3.43;3.10;;;3.80;99.90;;;;;;4996528;28;20451;-50
2023/03/29 09:55:26;;;;;;;6.73;2.80;;;3.90;99.90;;;;;;4996347;28;20820;-53
2023/03/29 09:57:53;;;;;;;5.47;2.70;;;4.10;99.90;;;;;;4995933;28;20556;-49
2023/03/29 10:00:21;;;;;;;3.43;2.53;;;4.10;99.90;;;;;;4996587;28;20542;-49
2023/03/29 10:02:52;;;;;;;2.13;1.93;;;4.20;99.90;;;;;;4996548;28;20453;-50
2023/03/29 10:05:21;;;;;;;1.67;1.57;;;4.30;99.90;;;;;;4996398;28;20530;-50
2023/03/29 10:07:53;;;;;;;2.27;2.07;;;4.30;99.90;;;;;;4995719;28;20458;-52
2023/03/29 10:10:23;;;;;;;2.60;2.40;;;4.30;99.90;;;;;;4996229;28;20878;-52
2023/03/29 10:12:52;;;;;;;3.77;2.93;;;4.30;99.90;;;;;;4997037;28;20475;-51
2023/03/29 10:15:20;;;;;;;2.77;2.53;;;4.30;99.90;;;;;;4995880;28;20503;-51
2023/03/29 10:17:47;;;;;;;2.50;2.00;;;4.20;99.90;;;;;;4995768;28;20557;-50
2023/03/29 10:20:17;;;;;;;3.00;2.00;;;4.30;99.90;;;;;;4995221;28;20498;-51
2023/03/29 10:22:54;;;;;;;2.43;2.00;;;4.20;99.90;;;;;;4993414;28;20950;-52
2023/03/29 10:25:26;;;;;;;2.90;2.50;;;4.10;99.90;;;;;;4995388;28;20438;-52
2023/03/29 10:28:01;;;;;;;4.43;2.90;;;4.40;99.90;;;;;;4995543;28;20526;-53
2023/03/29 10:30:28;;;;;;;3.57;3.20;;;4.50;99.90;;;;;;4994014;28;20845;-51
2023/03/29 10:32:58;;;;;;;3.03;2.30;;;4.50;99.90;;;;;;4995695;28;20440;-50
2023/03/29 10:35:30;;;;;;;2.83;2.60;;;4.30;99.90;;;;;;4992993;28;20951;-51
2023/03/29 10:38:00;;;;;;;2.33;2.13;;;4.20;99.90;;;;;;4995615;28;20486;-51
2023/03/29 10:40:30;;;;;;;3.47;2.73;;;4.30;99.90;;;;;;4992066;28;20447;-51
2023/03/29 10:43:11;;;;;;;3.40;2.97;;;4.50;99.90;;;;;;4995299;28;20451;-53
2023/03/29 10:45:39;;;;;;;2.40;2.07;;;4.40;99.90;;;;;;4994791;28;20439;-50
2023/03/29 10:48:11;;;;;;;2.60;1.80;;;4.30;99.90;;;;;;4993235;28;20538;-51
2023/03/29 10:50:39;;;;;;;2.13;1.87;;;4.10;99.90;;;;;;4996611;28;20455;-50
2023/03/29 10:53:14;;;;;;;2.80;2.20;;;4.10;99.90;;;;;;4995577;28;20448;-51
2023/03/29 10:55:59;;;;;;;7.93;2.27;;;4.30;99.90;;;;;;4995965;28;20460;-51
2023/03/29 10:58:36;;;;;;;2.53;2.30;;;4.40;99.90;;;;;;4994425;28;20898;-51
2023/03/29 11:01:04;;;;;;;2.90;2.63;;;4.60;99.90;;;;;;4995475;28;20838;-50
2023/03/29 11:03:59;;;;;;;2.97;2.63;;;4.80;99.90;;;;;;4995751;28;21035;-50
2023/03/29 11:06:33;;;;;;;5.03;4.30;;;4.70;99.90;;;;;;4994733;28;20873;-52
2023/03/29 11:09:06;;;;;;;3.17;2.87;;;4.90;99.90;;;;;;4993987;28;20447;-49
2023/03/29 11:11:47;;;;;;;2.73;2.23;;;4.90;99.90;;;;;;4994527;28;20490;-50
2023/03/29 11:14:30;;;;;;;3.20;3.00;;;5.00;99.90;;;;;;4994550;28;20524;-49
2023/03/29 11:17:08;;;;;;;3.03;2.77;;;5.10;99.90;;;;;;4995314;28;20494;-51
2023/03/29 11:20:01;;;;;;;3.57;3.27;;;5.30;99.90;;;;;;4993139;28;20478;-52
2023/03/29 11:22:38;;;;;;;4.43;3.10;;;5.20;99.90;;;;;;4994468;28;20486;-52
2023/03/29 11:25:32;;;;;;;3.40;3.13;;;5.30;99.90;;;;;;4993894;28;20934;-51
2023/03/29 11:28:05;;;;;;;3.87;3.27;;;5.40;99.90;;;;;;4993717;28;20459;-50
2023/03/29 11:30:41;;;;;;;3.83;3.30;;;5.40;99.90;;;;;;4993581;28;20455;-52
2023/03/29 11:33:21;;;;;;;3.90;3.57;;;5.50;99.90;;;;;;4993524;28;20450;-51
2023/03/29 11:35:56;;;;;;;3.07;2.77;;;5.50;99.90;;;;;;4993601;28;20539;-53
2023/03/29 11:38:29;;;;;;;3.27;2.80;;;5.40;99.90;;;;;;4993636;28;20577;-51
2023/03/29 11:41:03;;;;;;;3.70;3.27;;;5.50;99.90;;;;;;4993040;28;20472;-51
2023/03/29 11:43:35;;;;;;;3.70;3.40;;;5.50;99.90;;;;;;4993919;28;20447;-53
2023/03/29 11:46:09;;;;;;;3.50;3.20;;;5.60;99.90;;;;;;4993920;28;20456;-52
2023/03/29 11:48:43;;;;;;;3.63;3.33;;;5.70;99.90;;;;;;4993877;28;20990;-51
2023/03/29 11:51:17;;;;;;;4.60;2.73;;;5.90;99.90;;;;;;4992934;28;20482;-53
2023/03/29 11:53:55;;;;;;;4.17;3.77;;;5.80;99.90;;;;;;4994688;28;20476;-51
2023/03/29 11:56:29;;;;;;;3.70;3.40;;;5.80;99.90;;;;;;4997311;28;20451;-52
2023/03/29 11:59:03;;;;;;;2.97;2.77;;;5.90;99.90;;;;;;4996779;28;20593;-52
2023/03/29 12:01:35;;;;;;;3.37;3.07;;;6.00;99.90;;;;;;4997347;28;20815;-51
2023/03/29 12:04:07;;;;;;;3.43;2.97;;;5.90;99.90;;;;;;4997471;28;20498;-52
2023/03/29 12:06:40;;;;;;;3.17;2.97;;;5.90;99.90;;;;;;4996389;28;20448;-50
2023/03/29 12:09:17;;;;;;;3.13;2.83;;;6.00;99.90;;;;;;4997250;28;20543;-53
2023/03/29 12:11:50;;;;;;;2.90;2.60;;;6.10;99.90;;;;;;4997229;28;20454;-53
2023/03/29 12:14:22;;;;;;;3.50;2.20;;;6.30;99.90;;;;;;4996614;28;20448;-51
2023/03/29 12:16:52;;;;;;;3.17;2.93;;;6.30;99.90;;;;;;4996554;28;20570;-52
2023/03/29 12:19:25;;;;;;;3.43;3.00;;;6.30;99.90;;;;;;4997054;28;20492;-51
2023/03/29 12:21:54;;;;;;;5.10;3.00;;;6.40;99.90;;;;;;4997390;28;20498;-53
2023/03/29 12:24:22;;;;;;;3.40;2.97;;;6.40;99.90;;;;;;4996831;28;20451;-51
2023/03/29 12:27:22;;;;;;;3.20;2.90;;;6.50;99.90;;;;;;4997305;28;20488;-50
2023/03/29 12:30:16;;;;;;;3.70;3.40;;;6.60;99.90;;;;;;4996595;28;20444;-50
2023/03/29 12:32:58;;;;;;;4.53;3.17;;;6.60;99.90;;;;;;4994552;28;20535;-51
2023/03/29 12:35:36;;;;;;;5.60;5.10;;;6.60;99.90;;;;;;4994601;28;20484;-53
2023/03/29 12:38:11;;;;;;;5.93;5.33;;;6.60;99.90;;;;;;4994891;28;20522;-51
2023/03/29 12:40:42;;;;;;;3.87;3.13;;;6.70;99.90;;;;;;4995367;28;20443;-52
2023/03/29 12:43:19;;;;;;;3.13;2.93;;;6.70;99.90;;;;;;4995255;28;20463;-50
2023/03/29 12:45:47;;;;;;;3.70;3.40;;;6.70;99.90;;;;;;4995698;28;20535;-52
2023/03/29 12:48:17;;;;;;;3.50;3.20;;;6.80;99.90;;;;;;4996225;28;20979;-51
2023/03/29 12:50:48;;;;;;;4.50;3.57;;;6.80;99.90;;;;;;4996568;28;20948;-52
2023/03/29 12:53:21;;;;;;;3.43;3.17;;;6.90;99.90;;;;;;4996151;28;20499;-53
2023/03/29 12:55:53;;;;;;;4.60;4.20;;;6.90;99.90;;;;;;4996450;28;20510;-52
2023/03/29 12:58:42;;;;;;;4.50;3.40;;;6.80;99.90;;;;;;4996218;28;20514;-52
2023/03/29 13:01:21;;;;;;;2.87;2.53;;;6.70;99.90;;;;;;4996278;28;20452;-51
2023/03/29 13:03:50;;;;;;;2.83;2.60;;;6.80;99.90;;;;;;4996289;28;20451;-52
2023/03/29 13:06:29;;;;;;;3.13;2.83;;;7.00;99.90;;;;;;4994926;28;20539;-50
2023/03/29 13:09:03;;;;;;;2.70;2.50;;;7.30;99.90;;;;;;4997062;28;20947;-50
2023/03/29 13:11:34;;;;;;;4.93;2.70;;;7.20;99.90;;;;;;4995936;28;20458;-51
2023/03/29 13:14:12;;;;;;;2.70;2.20;;;7.30;99.90;;;;;;4996554;28;20444;-51
2023/03/29 13:16:41;;;;;;;3.50;3.20;;;7.30;99.90;;;;;;4995793;28;20502;-51